createdAt,value
2023-04-21T00:01:50.119Z,98.02
2023-04-21T00:06:44.834Z,97.70
2023-04-21T00:11:38.219Z,97.34
2023-04-21T00:16:31.365Z,97.43
2023-04-21T00:21:24.564Z,97.69
2023-04-21T00:26:20.039Z,97.58
2023-04-21T00:31:15.399Z,97.34
2023-04-21T00:36:08.745Z,97.88
2023-04-21T00:41:01.997Z,98.54
2023-04-21T00:45:56.540Z,98.58
2023-04-21T00:50:49.907Z,98.92
2023-04-21T00:55:43.329Z,99.28
2023-04-21T01:00:36.587Z,99.27
2023-04-21T01:05:33.080Z,99.02
2023-04-21T01:10:26.522Z,98.64
2023-04-21T01:15:19.783Z,98.90
2023-04-21T01:20:15.745Z,99.30
2023-04-21T01:25:11.416Z,99.92
2023-04-21T01:30:05.479Z,100.00
2023-04-21T01:35:00.048Z,100.00
2023-04-21T01:39:55.903Z,100.00
2023-04-21T01:44:50.845Z,100.00
2023-04-21T01:49:44.106Z,100.00
2023-04-21T01:54:38.927Z,100.00
2023-04-21T01:59:32.052Z,100.00
2023-04-21T02:04:26.833Z,100.00
2023-04-21T02:09:20.256Z,100.00
2023-04-21T02:14:13.569Z,100.00
2023-04-21T02:19:07.754Z,100.00
2023-04-21T02:24:02.384Z,100.00
2023-04-21T02:28:55.572Z,100.00
2023-04-21T02:33:48.684Z,100.00
2023-04-21T02:38:41.836Z,100.00
2023-04-21T02:43:38.125Z,100.00
2023-04-21T02:48:31.359Z,100.00
2023-04-21T02:53:24.483Z,100.00
2023-04-21T02:58:19.054Z,100.00
2023-04-21T03:03:13.794Z,100.00
2023-04-21T03:08:09.133Z,100.00
2023-04-21T03:13:02.210Z,100.00
2023-04-21T03:17:57.861Z,100.00
2023-04-21T03:22:54.685Z,100.00
2023-04-21T03:27:47.870Z,100.00
2023-04-21T03:32:41.120Z,100.00
2023-04-21T03:37:34.244Z,100.00
2023-04-21T03:42:30.242Z,100.00
2023-04-21T03:47:23.895Z,100.00
2023-04-21T03:52:20.875Z,100.00
2023-04-21T03:57:14.020Z,100.00
2023-04-21T04:02:08.714Z,100.00
2023-04-21T04:07:04.852Z,100.00
2023-04-21T04:11:58.045Z,100.00
2023-04-21T04:16:51.131Z,100.00
2023-04-21T04:21:47.004Z,100.00
2023-04-21T04:26:41.393Z,100.00
2023-04-21T04:31:34.863Z,100.00
2023-04-21T04:36:28.576Z,100.00
2023-04-21T04:41:24.234Z,100.00
2023-04-21T04:46:17.443Z,100.00
2023-04-21T04:51:10.593Z,100.00
2023-04-21T04:56:03.872Z,100.00
2023-04-21T05:00:58.377Z,100.00
2023-04-21T05:05:51.482Z,100.00
2023-04-21T05:10:44.559Z,100.00
2023-04-21T05:15:37.582Z,100.00
2023-04-21T05:20:32.263Z,100.00
2023-04-21T05:25:25.498Z,100.00
2023-04-21T05:30:18.727Z,100.00
2023-04-21T05:35:12.214Z,100.00
2023-04-21T05:40:08.094Z,100.00
2023-04-21T05:45:01.312Z,100.00
2023-04-21T05:49:55.817Z,99.13
2023-04-21T05:54:49.012Z,97.03
2023-04-21T05:59:52.508Z,96.07
2023-04-21T06:04:45.987Z,95.17
2023-04-21T06:09:39.312Z,96.71
2023-04-21T06:14:32.552Z,94.87
2023-04-21T06:19:29.001Z,95.68
2023-04-21T06:24:25.568Z,94.68
2023-04-21T06:29:23.429Z,95.15
2023-04-21T06:34:20.326Z,95.31
2023-04-21T06:39:16.524Z,96.10
2023-04-21T06:44:14.046Z,95.78
2023-04-21T06:49:07.264Z,95.31
2023-04-21T06:54:01.187Z,95.11
2023-04-21T06:58:55.704Z,92.80
2023-04-21T07:03:48.869Z,92.52
2023-04-21T07:08:42.351Z,90.28
2023-04-21T07:13:35.444Z,85.31
2023-04-21T07:18:35.678Z,82.52
2023-04-21T07:23:28.540Z,78.01
2023-04-21T07:28:24.399Z,73.19
2023-04-21T07:33:17.721Z,72.82
2023-04-21T07:38:12.466Z,74.86
2023-04-21T07:43:05.615Z,73.46
2023-04-21T07:47:59.348Z,71.98
2023-04-21T07:52:52.570Z,72.33
2023-04-21T07:57:47.171Z,66.40
2023-04-21T08:02:40.590Z,65.30
2023-04-21T08:07:42.122Z,65.61
2023-04-21T08:12:35.384Z,64.76
2023-04-21T08:17:30.019Z,61.19
2023-04-21T08:22:23.406Z,62.03
2023-04-21T08:27:16.793Z,64.38
2023-04-21T08:32:10.132Z,56.78
2023-04-21T08:37:04.758Z,55.34
2023-04-21T08:42:00.184Z,62.22
2023-04-21T08:46:55.455Z,48.37
2023-04-21T08:51:48.879Z,50.29
2023-04-21T08:56:43.440Z,42.57
2023-04-21T09:02:10.950Z,39.04
2023-04-21T09:07:05.209Z,42.32
2023-04-21T09:12:00.256Z,42.34
2023-04-21T09:17:01.601Z,41.77
2023-04-21T09:21:57.474Z,44.88
2023-04-21T09:26:52.063Z,42.29
2023-04-21T09:31:46.891Z,42.79
2023-04-21T09:36:45.120Z,41.91
2023-04-21T09:41:40.818Z,39.71
2023-04-21T09:46:36.048Z,40.80
2023-04-21T09:51:48.625Z,39.96
2023-04-21T09:56:47.726Z,36.30
2023-04-21T10:01:41.743Z,42.26
2023-04-21T10:06:36.536Z,41.84
2023-04-21T10:11:29.781Z,41.99
2023-04-21T10:16:23.401Z,40.99
2023-04-21T10:21:22.161Z,43.07
2023-04-21T10:26:22.249Z,45.88
2023-04-21T10:31:20.277Z,46.43
2023-04-21T10:36:15.806Z,43.93
2023-04-21T10:41:29.041Z,45.24
2023-04-21T10:46:41.317Z,41.64
2023-04-21T10:51:34.654Z,45.63
2023-04-21T10:56:30.365Z,50.31
2023-04-21T11:01:23.629Z,46.60
2023-04-21T11:06:18.314Z,46.74
2023-04-21T11:11:11.588Z,46.36
2023-04-21T11:16:09.494Z,47.20
2023-04-21T11:21:20.275Z,46.69
2023-04-21T11:26:16.244Z,45.13
2023-04-21T11:31:12.394Z,42.35
2023-04-21T11:36:07.617Z,46.41
2023-04-21T11:41:00.963Z,42.29
2023-04-21T11:45:54.437Z,36.37
2023-04-21T11:50:52.320Z,39.72
2023-04-21T11:55:46.848Z,39.64
2023-04-21T12:00:40.821Z,40.06
2023-04-21T12:05:37.208Z,43.21
2023-04-21T12:10:32.544Z,41.94
2023-04-21T12:15:31.447Z,40.34
2023-04-21T12:20:31.164Z,38.93
2023-04-21T12:25:25.360Z,41.45
2023-04-21T12:30:28.556Z,42.55
2023-04-21T12:35:24.711Z,41.71
2023-04-21T12:40:24.387Z,46.56
2023-04-21T12:45:19.659Z,46.55
2023-04-21T12:50:14.408Z,42.16
2023-04-21T12:55:10.245Z,43.81
2023-04-21T13:00:05.055Z,43.54
2023-04-21T13:04:58.247Z,43.87
2023-04-21T13:09:52.845Z,44.06
2023-04-21T13:14:46.374Z,44.75
2023-04-21T13:19:39.694Z,43.82
2023-04-21T13:24:32.964Z,43.17
2023-04-21T13:29:30.449Z,43.22
2023-04-21T13:34:24.315Z,44.02
2023-04-21T13:39:20.230Z,42.40
2023-04-21T13:44:15.832Z,42.20
2023-04-21T13:49:12.867Z,43.18
2023-04-21T13:54:06.346Z,38.41
2023-04-21T13:59:00.637Z,43.21
2023-04-21T14:03:57.550Z,41.99
2023-04-21T14:08:56.141Z,42.68
2023-04-21T14:14:05.328Z,40.00
2023-04-21T14:19:03.611Z,42.10
2023-04-21T14:23:58.154Z,41.10
2023-04-21T14:28:51.390Z,40.71
2023-04-21T14:33:51.018Z,40.22
2023-04-21T14:38:44.230Z,39.99
2023-04-21T14:43:39.104Z,42.52
2023-04-21T14:48:33.016Z,40.98
2023-04-21T14:53:26.672Z,42.58
2023-04-21T14:58:19.944Z,39.01
2023-04-21T15:03:14.588Z,36.90
2023-04-21T15:08:11.913Z,36.49
2023-04-21T15:13:05.682Z,36.66
2023-04-21T15:17:58.876Z,38.10
2023-04-21T15:22:53.397Z,39.67
2023-04-21T15:27:46.841Z,38.72
2023-04-21T15:32:40.785Z,39.54
2023-04-21T15:37:34.817Z,40.71
2023-04-21T15:42:34.134Z,38.78
2023-04-21T15:47:33.895Z,44.18
2023-04-21T15:52:27.704Z,42.31
2023-04-21T15:57:24.643Z,41.66
2023-04-21T16:02:28.815Z,42.24
2023-04-21T16:07:22.235Z,42.02
2023-04-21T16:12:20.863Z,44.03
2023-04-21T16:17:14.917Z,42.63
2023-04-21T16:22:20.278Z,42.92
2023-04-21T16:27:24.606Z,44.60
2023-04-21T16:32:29.626Z,44.41
2023-04-21T16:37:48.129Z,46.07
2023-04-21T16:42:44.585Z,45.83
2023-04-21T16:47:45.106Z,50.75
2023-04-21T16:52:38.803Z,53.71
2023-04-21T16:57:39.766Z,55.61
2023-04-21T17:02:33.028Z,56.70
2023-04-21T17:07:32.865Z,58.50
2023-04-21T17:12:26.681Z,59.60
2023-04-21T17:17:23.788Z,60.97
2023-04-21T17:22:17.069Z,61.74
2023-04-21T17:27:11.325Z,62.85
2023-04-21T17:32:04.746Z,64.09
2023-04-21T17:36:59.441Z,64.79
2023-04-21T17:41:52.715Z,65.51
2023-04-21T17:46:46.464Z,65.64
2023-04-21T17:51:40.752Z,66.73
2023-04-21T17:56:35.307Z,67.58
2023-04-21T18:01:29.812Z,68.01
2023-04-21T18:06:23.598Z,68.07
2023-04-21T18:11:16.748Z,68.11
2023-04-21T18:16:11.481Z,67.54
2023-04-21T18:21:04.984Z,67.62
2023-04-21T18:26:00.311Z,67.81
2023-04-21T18:31:10.907Z,67.98
2023-04-21T18:36:08.401Z,68.63
2023-04-21T18:41:01.578Z,68.97
2023-04-21T18:45:54.706Z,69.57
2023-04-21T18:50:47.924Z,70.16
2023-04-21T18:55:42.544Z,71.26
2023-04-21T19:00:38.999Z,71.36
2023-04-21T19:05:34.874Z,70.67
2023-04-21T19:10:31.310Z,71.46
2023-04-21T19:15:26.433Z,71.09
2023-04-21T19:20:19.819Z,70.85
2023-04-21T19:25:13.371Z,71.04
2023-04-21T19:30:12.362Z,71.42
2023-04-21T19:35:09.832Z,71.99
2023-04-21T19:40:09.712Z,71.86
2023-04-21T19:45:19.749Z,71.05
2023-04-21T19:50:17.947Z,71.77
2023-04-21T19:55:12.150Z,72.45
2023-04-21T20:00:12.530Z,72.55
2023-04-21T20:05:09.588Z,73.18
2023-04-21T20:10:08.242Z,73.87
2023-04-21T20:15:02.902Z,74.34
2023-04-21T20:19:56.320Z,74.39
2023-04-21T20:24:52.081Z,74.88
2023-04-21T20:29:47.677Z,74.88
2023-04-21T20:34:40.860Z,75.69
2023-04-21T20:39:34.144Z,76.07
2023-04-21T20:44:31.392Z,76.37
2023-04-21T20:49:28.186Z,75.30
2023-04-21T20:54:22.469Z,74.48
2023-04-21T20:59:17.782Z,75.30
2023-04-21T21:04:11.150Z,73.93
2023-04-21T21:09:06.118Z,73.48
2023-04-21T21:13:59.319Z,73.59
2023-04-21T21:18:54.656Z,73.28
2023-04-21T21:23:47.955Z,72.29
2023-04-21T21:28:42.561Z,72.91
2023-04-21T21:33:36.430Z,72.13
2023-04-21T21:38:35.652Z,73.43
2023-04-21T21:43:28.740Z,74.39
2023-04-21T21:48:23.883Z,74.87
2023-04-21T21:53:17.110Z,76.01
2023-04-21T21:58:10.311Z,76.87
2023-04-21T22:03:03.610Z,77.54
2023-04-21T22:07:58.374Z,78.18
2023-04-21T22:12:51.725Z,78.15
2023-04-21T22:17:45.578Z,78.69
2023-04-21T22:22:40.469Z,79.02
2023-04-21T22:27:35.060Z,80.65
2023-04-21T22:32:29.321Z,80.47
2023-04-21T22:37:22.468Z,80.86
2023-04-21T22:42:15.939Z,80.39
2023-04-21T22:47:10.830Z,81.16
2023-04-21T22:52:04.033Z,81.27
2023-04-21T22:56:57.657Z,79.37
2023-04-21T23:01:51.052Z,79.48
2023-04-21T23:06:45.700Z,80.14
2023-04-21T23:11:39.231Z,79.92
2023-04-21T23:16:32.315Z,79.97
2023-04-21T23:21:25.619Z,82.11
2023-04-21T23:26:20.214Z,80.97
2023-04-21T23:31:13.514Z,79.81
2023-04-21T23:36:07.176Z,79.53
2023-04-21T23:41:00.985Z,80.03
2023-04-21T23:45:55.595Z,79.44
2023-04-21T23:50:48.788Z,79.20
2023-04-21T23:55:46.195Z,79.66
